< Typhoon 198212 1982 Season Typhoon 198214 >
Typhoon 198213 (ELLIS)
General InformationTrack Information on Google MapsDetailed Wind InformationList of All Images || Disaster Info.ResourceGoogle EarthGE AnimationAtom FeedGeoJSON
Detalied Best Track (Time Zone = UTC)
Year Month Day Hour Lat. Long. Pressure (hPa) Wind (kt) Class Image Chart
1982 8 18 00 8.1 151.4 1004 0 2 Image Chart
1982 8 18 06 8.6 150.0 1003 0 2 Image Chart
1982 8 18 12 9.0 148.8 1003 0 2 Image Chart
1982 8 18 18 9.4 147.6 1003 0 2 Image Chart
1982 8 19 00 9.7 146.3 1002 0 2 Image Chart
1982 8 19 06 10.0 145.0 1000 0 2 Image Chart
1982 8 19 12 10.5 144.0 996 0 2 Image Chart
1982 8 19 18 11.0 143.0 990 40 3 Image Chart
1982 8 20 00 11.6 142.1 985 50 4 Image Chart
1982 8 20 06 12.2 141.2 985 50 4 Image Chart
1982 8 20 12 12.6 140.4 980 60 4 Image Chart
1982 8 20 18 13.1 139.7 975 60 4 Image Chart
1982 8 21 00 13.7 139.0 970 70 5 Image Chart
1982 8 21 06 14.3 138.4 965 70 5 Image Chart
1982 8 21 12 14.8 137.8 960 80 5 Image Chart
1982 8 21 18 15.4 137.2 955 90 5 Image Chart
1982 8 22 00 16.0 136.7 945 90 5 Image Chart
1982 8 22 06 16.7 136.2 930 90 5 Image Chart
1982 8 22 12 17.4 135.8 920 100 5 Image Chart
1982 8 22 18 18.3 135.4 915 100 5 Image Chart
1982 8 23 00 19.3 134.9 915 100 5 Image Chart
1982 8 23 06 20.3 134.5 920 100 5 Image Chart
1982 8 23 12 21.3 134.1 920 100 5 Image Chart
1982 8 23 18 22.2 133.5 920 100 5 Image Chart
1982 8 24 00 23.0 132.9 930 100 5 Image Chart
1982 8 24 06 23.7 132.3 935 100 5 Image Chart
1982 8 24 12 24.4 132.1 940 90 5 Image Chart
1982 8 24 18 25.2 131.8 945 90 5 Image Chart
1982 8 25 00 26.2 131.1 945 80 5 Image Chart
1982 8 25 06 27.0 130.9 945 80 5 Image Chart
1982 8 25 12 27.4 130.6 945 80 5 Image Chart
1982 8 25 18 28.0 130.5 950 80 5 Image Chart
1982 8 26 00 28.9 130.7 955 75 5 Image Chart
1982 8 26 06 29.6 130.8 955 75 5 Image Chart
1982 8 26 12 30.5 131.0 955 75 5 Image Chart
1982 8 26 18 32.0 131.4 955 70 5 Image Chart
1982 8 27 00 33.6 131.6 965 60 4 Image Chart
1982 8 27 06 35.8 131.8 970 55 4 Image Chart
1982 8 27 12 38.2 131.5 970 55 4 Image Chart
1982 8 27 18 40.3 131.0 975 45 3 Image Chart
1982 8 28 00 42.0 130.5 980 0 6 Image Chart
1982 8 28 06 44.0 130.0 982 0 6 Image Chart
1982 8 28 12 46.0 129.5 986 0 6 Image Chart
1982 8 28 18 46.5 129.5 986 0 6 Image Chart
1982 8 29 00 47.0 131.0 988 0 6 Image Chart
1982 8 29 06 49.0 132.0 988 0 6 Image Chart
1982 8 29 12 50.0 133.0 992 0 6 Image Chart
1982 8 29 18 52.0 135.0 996 0 6 Image Chart
1982 8 30 00 54.0 138.0 996 0 6 Image Chart
1982 8 30 06 55.0 142.0 996 0 6 Image Chart
1982 8 30 12 56.0 144.0 996 0 6 Image Chart
1982 8 30 18 57.0 146.0 996 0 6 Image Chart
1982 8 31 00 58.0 146.0 994 0 6 Image Chart
1982 8 31 06 58.5 146.0 994 0 6 Image Chart
1982 8 31 12 59.0 146.0 994 0 6 Image Chart
1982 8 31 18 59.5 146.0 994 0 6 Image Chart
1982 9 1 00 60.0 146.0 992 0 6 Image Chart
1982 9 1 06 61.0 143.0 994 0 6 Image Chart
1982 9 1 12 60.0 141.0 994 0 6 Image Chart
1982 9 1 18 59.0 142.0 994 0 6 Image Chart
1982 9 2 00 58.0 142.0 996 0 6 Image Chart
1982 9 2 06 58.0 142.0 998 0 6 Image Chart
1982 9 2 12 57.0 143.0 998 0 6 Image Chart
1982 9 2 18 57.0 144.0 1000 0 6 Image Chart
1982 9 3 00 56.0 145.0 1000 0 6 Image Chart
1982 9 3 06 56.0 145.0 1000 0 6 Image Chart
1982 9 3 12 56.0 146.0 1000 0 6 Image Chart
1982 9 3 18 56.0 147.0 1000 0 6 Image Chart
1982 9 4 00 56.0 147.0 1000 0 6 Image Chart
Japan Meteorological Agency Best Track Data | Correction Date : 1992-10-21
< Typhoon 198212 1982 Season Typhoon 198214 >

Help